sensor_id;sensor_type;location;lat;lon;timestamp;P1;durP1;ratioP1;P2;durP2;ratioP2
71629;SDS011;59479;51.902;8.212;2024-03-02T00:01:06;7.93;;;3.77;;
71629;SDS011;59479;51.902;8.212;2024-03-02T00:03:32;6.07;;;2.88;;
71629;SDS011;59479;51.902;8.212;2024-03-02T00:05:57;5.33;;;3.17;;
71629;SDS011;59479;51.902;8.212;2024-03-02T00:08:25;6.80;;;3.17;;
71629;SDS011;59479;51.902;8.212;2024-03-02T00:10:51;6.30;;;2.90;;
71629;SDS011;59479;51.902;8.212;2024-03-02T00:13:18;6.20;;;3.17;;
71629;SDS011;59479;51.902;8.212;2024-03-02T00:15:48;7.63;;;3.05;;
71629;SDS011;59479;51.902;8.212;2024-03-02T00:18:18;7.88;;;3.10;;
71629;SDS011;59479;51.902;8.212;2024-03-02T00:20:44;5.43;;;2.90;;
71629;SDS011;59479;51.902;8.212;2024-03-02T00:23:12;5.47;;;3.00;;
71629;SDS011;59479;51.902;8.212;2024-03-02T00:25:41;5.55;;;3.33;;
71629;SDS011;59479;51.902;8.212;2024-03-02T00:28:17;6.77;;;3.37;;
71629;SDS011;59479;51.902;8.212;2024-03-02T00:33:20;6.13;;;3.10;;
71629;SDS011;59479;51.902;8.212;2024-03-02T00:35:46;6.88;;;3.33;;
71629;SDS011;59479;51.902;8.212;2024-03-02T00:38:12;6.47;;;2.90;;
71629;SDS011;59479;51.902;8.212;2024-03-02T00:40:40;7.20;;;3.17;;
71629;SDS011;59479;51.902;8.212;2024-03-02T00:43:07;6.93;;;3.57;;
71629;SDS011;59479;51.902;8.212;2024-03-02T00:45:50;5.35;;;2.75;;
71629;SDS011;59479;51.902;8.212;2024-03-02T00:48:15;7.83;;;3.00;;
71629;SDS011;59479;51.902;8.212;2024-03-02T00:50:41;7.28;;;3.15;;
71629;SDS011;59479;51.902;8.212;2024-03-02T00:53:09;5.82;;;3.08;;
71629;SDS011;59479;51.902;8.212;2024-03-02T00:55:36;6.17;;;2.77;;
71629;SDS011;59479;51.902;8.212;2024-03-02T00:58:02;7.80;;;3.13;;
71629;SDS011;59479;51.902;8.212;2024-03-02T01:00:28;6.63;;;3.07;;
71629;SDS011;59479;51.902;8.212;2024-03-02T01:02:53;6.63;;;2.77;;
71629;SDS011;59479;51.902;8.212;2024-03-02T01:05:19;5.47;;;3.00;;
71629;SDS011;59479;51.902;8.212;2024-03-02T01:07:45;4.80;;;3.00;;
71629;SDS011;59479;51.902;8.212;2024-03-02T01:10:10;6.50;;;2.93;;
71629;SDS011;59479;51.902;8.212;2024-03-02T01:12:36;6.60;;;3.03;;
71629;SDS011;59479;51.902;8.212;2024-03-02T01:15:01;6.23;;;3.33;;
71629;SDS011;59479;51.902;8.212;2024-03-02T01:17:29;7.20;;;3.33;;
71629;SDS011;59479;51.902;8.212;2024-03-02T01:19:54;8.60;;;3.30;;
71629;SDS011;59479;51.902;8.212;2024-03-02T01:22:19;5.53;;;2.73;;
71629;SDS011;59479;51.902;8.212;2024-03-02T01:24:50;5.75;;;2.70;;
71629;SDS011;59479;51.902;8.212;2024-03-02T01:27:15;6.13;;;3.13;;
71629;SDS011;59479;51.902;8.212;2024-03-02T01:29:40;8.32;;;3.53;;
71629;SDS011;59479;51.902;8.212;2024-03-02T01:32:06;6.00;;;3.50;;
71629;SDS011;59479;51.902;8.212;2024-03-02T01:34:31;7.20;;;3.43;;
71629;SDS011;59479;51.902;8.212;2024-03-02T01:36:57;5.97;;;3.23;;
71629;SDS011;59479;51.902;8.212;2024-03-02T01:39:22;7.47;;;3.67;;
71629;SDS011;59479;51.902;8.212;2024-03-02T01:41:47;6.63;;;3.40;;
71629;SDS011;59479;51.902;8.212;2024-03-02T01:44:13;8.88;;;3.22;;
71629;SDS011;59479;51.902;8.212;2024-03-02T01:46:38;6.20;;;3.07;;
71629;SDS011;59479;51.902;8.212;2024-03-02T01:49:03;5.80;;;3.70;;
71629;SDS011;59479;51.902;8.212;2024-03-02T01:51:29;7.27;;;3.70;;
71629;SDS011;59479;51.902;8.212;2024-03-02T01:53:55;9.23;;;3.22;;
71629;SDS011;59479;51.902;8.212;2024-03-02T01:56:20;6.27;;;3.33;;
71629;SDS011;59479;51.902;8.212;2024-03-02T01:58:45;7.73;;;3.97;;
71629;SDS011;59479;51.902;8.212;2024-03-02T02:01:11;6.90;;;3.90;;
71629;SDS011;59479;51.902;8.212;2024-03-02T02:03:36;6.60;;;2.80;;
71629;SDS011;59479;51.902;8.212;2024-03-02T02:06:05;7.13;;;3.88;;
71629;SDS011;59479;51.902;8.212;2024-03-02T02:08:32;7.57;;;3.97;;
71629;SDS011;59479;51.902;8.212;2024-03-02T02:10:57;6.87;;;3.80;;
71629;SDS011;59479;51.902;8.212;2024-03-02T02:13:23;7.03;;;3.17;;
71629;SDS011;59479;51.902;8.212;2024-03-02T02:15:48;9.33;;;3.83;;
71629;SDS011;59479;51.902;8.212;2024-03-02T02:18:13;7.17;;;3.37;;
71629;SDS011;59479;51.902;8.212;2024-03-02T02:20:39;12.88;;;3.25;;
71629;SDS011;59479;51.902;8.212;2024-03-02T02:23:04;8.23;;;3.60;;
71629;SDS011;59479;51.902;8.212;2024-03-02T02:25:36;7.47;;;3.83;;
71629;SDS011;59479;51.902;8.212;2024-03-02T02:28:01;8.55;;;3.50;;
71629;SDS011;59479;51.902;8.212;2024-03-02T02:30:30;9.00;;;3.97;;
71629;SDS011;59479;51.902;8.212;2024-03-02T02:32:57;7.03;;;3.72;;
71629;SDS011;59479;51.902;8.212;2024-03-02T02:35:23;6.47;;;3.03;;
71629;SDS011;59479;51.902;8.212;2024-03-02T02:37:52;7.13;;;4.20;;
71629;SDS011;59479;51.902;8.212;2024-03-02T02:40:19;9.10;;;3.25;;
71629;SDS011;59479;51.902;8.212;2024-03-02T02:42:45;7.65;;;3.50;;
71629;SDS011;59479;51.902;8.212;2024-03-02T02:45:10;5.85;;;2.95;;
71629;SDS011;59479;51.902;8.212;2024-03-02T02:47:38;7.00;;;3.67;;
71629;SDS011;59479;51.902;8.212;2024-03-02T02:50:03;5.80;;;3.50;;
71629;SDS011;59479;51.902;8.212;2024-03-02T02:52:36;9.10;;;4.10;;
71629;SDS011;59479;51.902;8.212;2024-03-02T02:55:07;6.23;;;3.03;;
71629;SDS011;59479;51.902;8.212;2024-03-02T03:00:10;12.63;;;4.55;;
71629;SDS011;59479;51.902;8.212;2024-03-02T03:02:39;11.00;;;4.47;;
71629;SDS011;59479;51.902;8.212;2024-03-02T03:05:06;10.60;;;4.35;;
71629;SDS011;59479;51.902;8.212;2024-03-02T03:07:32;9.83;;;4.07;;
71629;SDS011;59479;51.902;8.212;2024-03-02T03:09:58;12.02;;;4.35;;
71629;SDS011;59479;51.902;8.212;2024-03-02T03:12:24;15.53;;;5.37;;
71629;SDS011;59479;51.902;8.212;2024-03-02T03:14:49;12.37;;;4.73;;
71629;SDS011;59479;51.902;8.212;2024-03-02T03:17:14;13.77;;;4.57;;
71629;SDS011;59479;51.902;8.212;2024-03-02T03:19:40;10.83;;;3.90;;
71629;SDS011;59479;51.902;8.212;2024-03-02T03:22:05;13.53;;;4.67;;
71629;SDS011;59479;51.902;8.212;2024-03-02T03:24:30;12.98;;;4.53;;
71629;SDS011;59479;51.902;8.212;2024-03-02T03:26:57;10.82;;;4.05;;
71629;SDS011;59479;51.902;8.212;2024-03-02T03:29:23;14.37;;;5.47;;
71629;SDS011;59479;51.902;8.212;2024-03-02T03:31:48;11.57;;;4.40;;
71629;SDS011;59479;51.902;8.212;2024-03-02T03:34:13;9.53;;;3.97;;
71629;SDS011;59479;51.902;8.212;2024-03-02T03:36:41;10.07;;;4.53;;
71629;SDS011;59479;51.902;8.212;2024-03-02T03:39:06;11.35;;;5.03;;
71629;SDS011;59479;51.902;8.212;2024-03-02T03:41:32;15.77;;;5.43;;
71629;SDS011;59479;51.902;8.212;2024-03-02T03:43:57;11.73;;;5.07;;
71629;SDS011;59479;51.902;8.212;2024-03-02T03:46:22;14.75;;;5.15;;
71629;SDS011;59479;51.902;8.212;2024-03-02T03:48:48;10.47;;;4.20;;
71629;SDS011;59479;51.902;8.212;2024-03-02T03:51:13;10.20;;;4.30;;
71629;SDS011;59479;51.902;8.212;2024-03-02T03:53:39;14.57;;;4.20;;
71629;SDS011;59479;51.902;8.212;2024-03-02T03:56:04;10.63;;;4.30;;
71629;SDS011;59479;51.902;8.212;2024-03-02T03:58:30;10.93;;;5.13;;
71629;SDS011;59479;51.902;8.212;2024-03-02T04:00:55;10.53;;;5.03;;
71629;SDS011;59479;51.902;8.212;2024-03-02T04:03:21;12.75;;;4.80;;
71629;SDS011;59479;51.902;8.212;2024-03-02T04:05:47;10.33;;;4.20;;
71629;SDS011;59479;51.902;8.212;2024-03-02T04:08:12;11.93;;;4.43;;
71629;SDS011;59479;51.902;8.212;2024-03-02T04:10:38;17.53;;;4.53;;
71629;SDS011;59479;51.902;8.212;2024-03-02T04:13:03;11.75;;;5.15;;
71629;SDS011;59479;51.902;8.212;2024-03-02T04:15:28;13.47;;;5.03;;
71629;SDS011;59479;51.902;8.212;2024-03-02T04:17:54;12.03;;;4.23;;
71629;SDS011;59479;51.902;8.212;2024-03-02T04:20:20;16.45;;;5.68;;
71629;SDS011;59479;51.902;8.212;2024-03-02T04:22:45;14.43;;;4.47;;
71629;SDS011;59479;51.902;8.212;2024-03-02T04:25:10;11.13;;;4.60;;
71629;SDS011;59479;51.902;8.212;2024-03-02T04:27:36;11.33;;;4.47;;
71629;SDS011;59479;51.902;8.212;2024-03-02T04:30:01;12.90;;;5.00;;
71629;SDS011;59479;51.902;8.212;2024-03-02T04:32:28;12.80;;;5.60;;
71629;SDS011;59479;51.902;8.212;2024-03-02T04:34:54;11.07;;;4.20;;
71629;SDS011;59479;51.902;8.212;2024-03-02T04:37:19;14.20;;;4.57;;
71629;SDS011;59479;51.902;8.212;2024-03-02T04:39:45;8.63;;;4.20;;
71629;SDS011;59479;51.902;8.212;2024-03-02T04:42:10;14.57;;;4.27;;
71629;SDS011;59479;51.902;8.212;2024-03-02T04:44:36;12.53;;;5.30;;
71629;SDS011;59479;51.902;8.212;2024-03-02T04:47:03;12.45;;;5.15;;
71629;SDS011;59479;51.902;8.212;2024-03-02T04:49:29;13.75;;;5.13;;
71629;SDS011;59479;51.902;8.212;2024-03-02T04:51:55;11.20;;;4.53;;
71629;SDS011;59479;51.902;8.212;2024-03-02T04:54:20;18.23;;;5.57;;
71629;SDS011;59479;51.902;8.212;2024-03-02T04:56:45;11.73;;;5.43;;
71629;SDS011;59479;51.902;8.212;2024-03-02T04:59:15;14.48;;;6.43;;
71629;SDS011;59479;51.902;8.212;2024-03-02T05:01:41;13.17;;;5.50;;
71629;SDS011;59479;51.902;8.212;2024-03-02T05:04:07;11.25;;;5.05;;
71629;SDS011;59479;51.902;8.212;2024-03-02T05:06:32;17.70;;;6.27;;
71629;SDS011;59479;51.902;8.212;2024-03-02T05:08:58;10.87;;;4.80;;
71629;SDS011;59479;51.902;8.212;2024-03-02T05:11:23;15.30;;;6.00;;
71629;SDS011;59479;51.902;8.212;2024-03-02T05:14:14;14.57;;;5.95;;
71629;SDS011;59479;51.902;8.212;2024-03-02T05:16:40;13.27;;;5.80;;
71629;SDS011;59479;51.902;8.212;2024-03-02T05:19:06;11.63;;;5.88;;
71629;SDS011;59479;51.902;8.212;2024-03-02T05:21:32;19.97;;;6.93;;
71629;SDS011;59479;51.902;8.212;2024-03-02T05:23:58;10.88;;;5.25;;
71629;SDS011;59479;51.902;8.212;2024-03-02T05:26:23;15.63;;;6.50;;
71629;SDS011;59479;51.902;8.212;2024-03-02T05:28:49;12.03;;;5.47;;
71629;SDS011;59479;51.902;8.212;2024-03-02T05:31:14;13.57;;;6.03;;
71629;SDS011;59479;51.902;8.212;2024-03-02T05:33:41;12.40;;;6.13;;
71629;SDS011;59479;51.902;8.212;2024-03-02T05:36:06;13.23;;;5.73;;
71629;SDS011;59479;51.902;8.212;2024-03-02T05:38:32;17.63;;;6.75;;
71629;SDS011;59479;51.902;8.212;2024-03-02T05:41:00;16.77;;;5.87;;
71629;SDS011;59479;51.902;8.212;2024-03-02T05:43:25;17.55;;;6.45;;
71629;SDS011;59479;51.902;8.212;2024-03-02T05:45:50;13.47;;;6.37;;
71629;SDS011;59479;51.902;8.212;2024-03-02T05:48:16;14.10;;;5.37;;
71629;SDS011;59479;51.902;8.212;2024-03-02T05:50:41;12.47;;;5.60;;
71629;SDS011;59479;51.902;8.212;2024-03-02T05:53:06;16.57;;;6.00;;
71629;SDS011;59479;51.902;8.212;2024-03-02T05:55:32;20.13;;;7.85;;
71629;SDS011;59479;51.902;8.212;2024-03-02T05:57:57;16.23;;;6.70;;
71629;SDS011;59479;51.902;8.212;2024-03-02T06:00:23;15.33;;;6.33;;
71629;SDS011;59479;51.902;8.212;2024-03-02T06:02:48;15.93;;;7.20;;
71629;SDS011;59479;51.902;8.212;2024-03-02T06:05:14;14.93;;;5.40;;
71629;SDS011;59479;51.902;8.212;2024-03-02T06:07:40;17.15;;;7.38;;
71629;SDS011;59479;51.902;8.212;2024-03-02T06:10:05;16.00;;;6.67;;
71629;SDS011;59479;51.902;8.212;2024-03-02T06:12:32;19.13;;;6.85;;
71629;SDS011;59479;51.902;8.212;2024-03-02T06:14:57;16.03;;;7.27;;
71629;SDS011;59479;51.902;8.212;2024-03-02T06:17:23;14.70;;;5.80;;
71629;SDS011;59479;51.902;8.212;2024-03-02T06:19:48;16.70;;;6.90;;
71629;SDS011;59479;51.902;8.212;2024-03-02T06:22:14;16.77;;;6.43;;
71629;SDS011;59479;51.902;8.212;2024-03-02T06:24:39;17.87;;;6.90;;
71629;SDS011;59479;51.902;8.212;2024-03-02T06:27:05;15.03;;;5.83;;
71629;SDS011;59479;51.902;8.212;2024-03-02T06:29:32;19.83;;;7.37;;
71629;SDS011;59479;51.902;8.212;2024-03-02T06:31:58;14.73;;;5.82;;
71629;SDS011;59479;51.902;8.212;2024-03-02T06:34:23;14.63;;;6.43;;
71629;SDS011;59479;51.902;8.212;2024-03-02T06:36:48;12.00;;;5.23;;
71629;SDS011;59479;51.902;8.212;2024-03-02T06:39:13;14.65;;;5.75;;
71629;SDS011;59479;51.902;8.212;2024-03-02T06:41:39;21.92;;;8.18;;
71629;SDS011;59479;51.902;8.212;2024-03-02T06:44:04;19.00;;;8.37;;
71629;SDS011;59479;51.902;8.212;2024-03-02T06:46:31;19.53;;;7.37;;
71629;SDS011;59479;51.902;8.212;2024-03-02T06:48:57;18.13;;;7.03;;
71629;SDS011;59479;51.902;8.212;2024-03-02T06:51:22;19.20;;;7.93;;
71629;SDS011;59479;51.902;8.212;2024-03-02T06:53:48;14.60;;;6.30;;
71629;SDS011;59479;51.902;8.212;2024-03-02T06:56:13;15.40;;;6.63;;
71629;SDS011;59479;51.902;8.212;2024-03-02T06:58:38;18.60;;;7.33;;
71629;SDS011;59479;51.902;8.212;2024-03-02T07:01:04;14.90;;;5.60;;
71629;SDS011;59479;51.902;8.212;2024-03-02T07:03:30;18.03;;;7.17;;
71629;SDS011;59479;51.902;8.212;2024-03-02T07:05:55;16.37;;;5.67;;
71629;SDS011;59479;51.902;8.212;2024-03-02T07:08:20;15.40;;;6.15;;
71629;SDS011;59479;51.902;8.212;2024-03-02T07:10:46;16.80;;;6.00;;
71629;SDS011;59479;51.902;8.212;2024-03-02T07:13:12;16.33;;;7.07;;
71629;SDS011;59479;51.902;8.212;2024-03-02T07:15:38;15.33;;;6.13;;
71629;SDS011;59479;51.902;8.212;2024-03-02T07:18:26;13.40;;;5.75;;
71629;SDS011;59479;51.902;8.212;2024-03-02T07:20:51;14.25;;;6.85;;
71629;SDS011;59479;51.902;8.212;2024-03-02T07:23:17;19.50;;;7.10;;
71629;SDS011;59479;51.902;8.212;2024-03-02T07:25:42;20.37;;;8.20;;
71629;SDS011;59479;51.902;8.212;2024-03-02T07:28:08;15.47;;;6.47;;
71629;SDS011;59479;51.902;8.212;2024-03-02T07:30:33;16.87;;;7.23;;
71629;SDS011;59479;51.902;8.212;2024-03-02T07:32:58;16.20;;;6.67;;
71629;SDS011;59479;51.902;8.212;2024-03-02T07:35:24;14.75;;;6.78;;
71629;SDS011;59479;51.902;8.212;2024-03-02T07:37:52;15.40;;;5.93;;
71629;SDS011;59479;51.902;8.212;2024-03-02T07:40:18;18.10;;;6.88;;
71629;SDS011;59479;51.902;8.212;2024-03-02T07:42:44;19.50;;;8.30;;
71629;SDS011;59479;51.902;8.212;2024-03-02T07:45:10;12.23;;;5.57;;
71629;SDS011;59479;51.902;8.212;2024-03-02T07:47:36;20.75;;;7.32;;
71629;SDS011;59479;51.902;8.212;2024-03-02T07:50:01;14.43;;;5.33;;
71629;SDS011;59479;51.902;8.212;2024-03-02T07:52:27;14.85;;;5.15;;
71629;SDS011;59479;51.902;8.212;2024-03-02T07:54:53;17.13;;;5.77;;
71629;SDS011;59479;51.902;8.212;2024-03-02T07:57:19;13.27;;;6.30;;
71629;SDS011;59479;51.902;8.212;2024-03-02T07:59:44;19.38;;;6.88;;
71629;SDS011;59479;51.902;8.212;2024-03-02T08:02:10;16.93;;;6.50;;
71629;SDS011;59479;51.902;8.212;2024-03-02T08:04:35;18.02;;;7.22;;
71629;SDS011;59479;51.902;8.212;2024-03-02T08:07:02;15.73;;;6.15;;
71629;SDS011;59479;51.902;8.212;2024-03-02T08:09:27;12.82;;;6.00;;
71629;SDS011;59479;51.902;8.212;2024-03-02T08:11:53;11.37;;;5.33;;
71629;SDS011;59479;51.902;8.212;2024-03-02T08:14:18;11.20;;;4.73;;
71629;SDS011;59479;51.902;8.212;2024-03-02T08:16:44;11.67;;;5.13;;
71629;SDS011;59479;51.902;8.212;2024-03-02T08:19:10;9.00;;;4.50;;
71629;SDS011;59479;51.902;8.212;2024-03-02T08:21:37;13.13;;;5.10;;
71629;SDS011;59479;51.902;8.212;2024-03-02T08:24:02;13.70;;;4.53;;
71629;SDS011;59479;51.902;8.212;2024-03-02T08:26:28;12.17;;;4.93;;
71629;SDS011;59479;51.902;8.212;2024-03-02T08:28:57;11.80;;;4.68;;
71629;SDS011;59479;51.902;8.212;2024-03-02T08:31:23;11.65;;;4.60;;
71629;SDS011;59479;51.902;8.212;2024-03-02T08:33:49;10.52;;;4.32;;
71629;SDS011;59479;51.902;8.212;2024-03-02T08:36:15;11.03;;;4.50;;
71629;SDS011;59479;51.902;8.212;2024-03-02T08:38:41;8.47;;;4.23;;
71629;SDS011;59479;51.902;8.212;2024-03-02T08:41:06;11.38;;;4.80;;
71629;SDS011;59479;51.902;8.212;2024-03-02T08:43:32;9.67;;;4.07;;
71629;SDS011;59479;51.902;8.212;2024-03-02T08:45:58;6.65;;;3.72;;
71629;SDS011;59479;51.902;8.212;2024-03-02T08:48:23;10.47;;;4.40;;
71629;SDS011;59479;51.902;8.212;2024-03-02T08:50:49;9.97;;;4.57;;
71629;SDS011;59479;51.902;8.212;2024-03-02T08:53:14;14.18;;;4.50;;
71629;SDS011;59479;51.902;8.212;2024-03-02T08:55:44;8.60;;;4.13;;
71629;SDS011;59479;51.902;8.212;2024-03-02T08:58:12;8.13;;;3.70;;
71629;SDS011;59479;51.902;8.212;2024-03-02T09:00:37;6.20;;;3.55;;
71629;SDS011;59479;51.902;8.212;2024-03-02T09:03:03;8.32;;;4.03;;
71629;SDS011;59479;51.902;8.212;2024-03-02T09:05:28;9.70;;;3.77;;
71629;SDS011;59479;51.902;8.212;2024-03-02T09:07:54;14.47;;;3.87;;
71629;SDS011;59479;51.902;8.212;2024-03-02T09:10:22;8.43;;;3.30;;
71629;SDS011;59479;51.902;8.212;2024-03-02T09:12:50;7.53;;;3.42;;
71629;SDS011;59479;51.902;8.212;2024-03-02T09:15:23;8.00;;;3.10;;
71629;SDS011;59479;51.902;8.212;2024-03-02T09:17:48;9.03;;;3.40;;
71629;SDS011;59479;51.902;8.212;2024-03-02T09:20:14;6.07;;;3.10;;
71629;SDS011;59479;51.902;8.212;2024-03-02T09:22:39;5.90;;;3.30;;
71629;SDS011;59479;51.902;8.212;2024-03-02T09:25:06;7.72;;;3.25;;
71629;SDS011;59479;51.902;8.212;2024-03-02T09:27:36;6.20;;;2.88;;
71629;SDS011;59479;51.902;8.212;2024-03-02T09:30:03;9.68;;;3.50;;
71629;SDS011;59479;51.902;8.212;2024-03-02T09:32:35;7.17;;;3.63;;
71629;SDS011;59479;51.902;8.212;2024-03-02T09:35:02;9.15;;;3.45;;
71629;SDS011;59479;51.902;8.212;2024-03-02T09:37:28;9.13;;;2.95;;
71629;SDS011;59479;51.902;8.212;2024-03-02T09:39:53;7.63;;;3.50;;
71629;SDS011;59479;51.902;8.212;2024-03-02T09:42:20;4.97;;;2.90;;
71629;SDS011;59479;51.902;8.212;2024-03-02T09:44:45;4.90;;;2.90;;
71629;SDS011;59479;51.902;8.212;2024-03-02T09:47:10;6.57;;;3.00;;
71629;SDS011;59479;51.902;8.212;2024-03-02T09:49:36;5.23;;;2.53;;
71629;SDS011;59479;51.902;8.212;2024-03-02T09:52:01;7.60;;;2.77;;
71629;SDS011;59479;51.902;8.212;2024-03-02T09:54:28;7.53;;;3.50;;
71629;SDS011;59479;51.902;8.212;2024-03-02T09:56:54;5.33;;;2.60;;
71629;SDS011;59479;51.902;8.212;2024-03-02T09:59:19;6.82;;;3.30;;
71629;SDS011;59479;51.902;8.212;2024-03-02T10:02:18;5.23;;;2.30;;
71629;SDS011;59479;51.902;8.212;2024-03-02T10:04:37;4.88;;;2.42;;
71629;SDS011;59479;51.902;8.212;2024-03-02T10:07:20;5.77;;;2.33;;
71629;SDS011;59479;51.902;8.212;2024-03-02T10:09:46;6.88;;;2.97;;
71629;SDS011;59479;51.902;8.212;2024-03-02T10:12:14;4.97;;;2.35;;
71629;SDS011;59479;51.902;8.212;2024-03-02T10:14:41;4.95;;;2.47;;
71629;SDS011;59479;51.902;8.212;2024-03-02T10:17:07;4.37;;;2.57;;
71629;SDS011;59479;51.902;8.212;2024-03-02T10:19:37;5.95;;;2.67;;
71629;SDS011;59479;51.902;8.212;2024-03-02T10:22:04;5.32;;;2.00;;
71629;SDS011;59479;51.902;8.212;2024-03-02T10:24:42;4.85;;;2.42;;
71629;SDS011;59479;51.902;8.212;2024-03-02T10:27:18;5.00;;;2.00;;
71629;SDS011;59479;51.902;8.212;2024-03-02T10:29:48;6.28;;;2.75;;
71629;SDS011;59479;51.902;8.212;2024-03-02T10:32:14;5.40;;;2.40;;
71629;SDS011;59479;51.902;8.212;2024-03-02T10:34:41;4.93;;;2.33;;
71629;SDS011;59479;51.902;8.212;2024-03-02T10:37:07;4.47;;;1.95;;
71629;SDS011;59479;51.902;8.212;2024-03-02T10:39:36;4.20;;;1.93;;
71629;SDS011;59479;51.902;8.212;2024-03-02T10:42:02;4.40;;;2.40;;
71629;SDS011;59479;51.902;8.212;2024-03-02T10:44:28;4.80;;;2.30;;
71629;SDS011;59479;51.902;8.212;2024-03-02T10:46:56;6.05;;;2.35;;
71629;SDS011;59479;51.902;8.212;2024-03-02T10:49:24;4.17;;;1.53;;
71629;SDS011;59479;51.902;8.212;2024-03-02T10:52:00;4.85;;;2.08;;
71629;SDS011;59479;51.902;8.212;2024-03-02T10:54:33;5.00;;;2.42;;
71629;SDS011;59479;51.902;8.212;2024-03-02T10:57:01;4.28;;;2.00;;
71629;SDS011;59479;51.902;8.212;2024-03-02T10:59:34;5.15;;;2.30;;
71629;SDS011;59479;51.902;8.212;2024-03-02T11:02:10;4.27;;;2.10;;
71629;SDS011;59479;51.902;8.212;2024-03-02T11:04:37;4.57;;;2.25;;
71629;SDS011;59479;51.902;8.212;2024-03-02T11:07:05;4.60;;;2.13;;
71629;SDS011;59479;51.902;8.212;2024-03-02T11:09:37;4.85;;;2.33;;
71629;SDS011;59479;51.902;8.212;2024-03-02T11:14:57;3.33;;;1.40;;
71629;SDS011;59479;51.902;8.212;2024-03-02T11:17:23;3.00;;;1.63;;
71629;SDS011;59479;51.902;8.212;2024-03-02T11:19:50;3.70;;;1.95;;
71629;SDS011;59479;51.902;8.212;2024-03-02T11:22:16;4.45;;;1.42;;
71629;SDS011;59479;51.902;8.212;2024-03-02T11:24:48;3.47;;;1.73;;
71629;SDS011;59479;51.902;8.212;2024-03-02T11:27:15;3.55;;;1.23;;
71629;SDS011;59479;51.902;8.212;2024-03-02T11:32:56;3.60;;;1.63;;
71629;SDS011;59479;51.902;8.212;2024-03-02T11:35:24;4.47;;;1.90;;
71629;SDS011;59479;51.902;8.212;2024-03-02T11:40:32;3.83;;;1.52;;
71629;SDS011;59479;51.902;8.212;2024-03-02T11:42:58;3.27;;;1.53;;
71629;SDS011;59479;51.902;8.212;2024-03-02T11:45:25;3.50;;;1.30;;
71629;SDS011;59479;51.902;8.212;2024-03-02T11:47:53;3.63;;;1.50;;
71629;SDS011;59479;51.902;8.212;2024-03-02T11:51:01;3.77;;;1.60;;
71629;SDS011;59479;51.902;8.212;2024-03-02T11:53:12;3.05;;;1.38;;
71629;SDS011;59479;51.902;8.212;2024-03-02T11:55:38;3.67;;;1.38;;
71629;SDS011;59479;51.902;8.212;2024-03-02T12:00:44;3.67;;;1.45;;
71629;SDS011;59479;51.902;8.212;2024-03-02T12:03:12;3.07;;;1.47;;
71629;SDS011;59479;51.902;8.212;2024-03-02T12:05:38;4.28;;;1.60;;
71629;SDS011;59479;51.902;8.212;2024-03-02T12:08:07;3.57;;;1.60;;
71629;SDS011;59479;51.902;8.212;2024-03-02T12:10:34;4.80;;;1.63;;
71629;SDS011;59479;51.902;8.212;2024-03-02T12:13:04;3.88;;;1.50;;
71629;SDS011;59479;51.902;8.212;2024-03-02T12:15:36;3.55;;;1.42;;
71629;SDS011;59479;51.902;8.212;2024-03-02T12:18:02;3.88;;;1.10;;
71629;SDS011;59479;51.902;8.212;2024-03-02T12:20:29;3.27;;;1.37;;
71629;SDS011;59479;51.902;8.212;2024-03-02T12:22:56;3.42;;;1.45;;
71629;SDS011;59479;51.902;8.212;2024-03-02T12:25:23;2.90;;;1.25;;
71629;SDS011;59479;51.902;8.212;2024-03-02T12:27:51;3.50;;;1.40;;
71629;SDS011;59479;51.902;8.212;2024-03-02T12:30:18;3.20;;;1.38;;
71629;SDS011;59479;51.902;8.212;2024-03-02T12:32:45;4.20;;;1.20;;
71629;SDS011;59479;51.902;8.212;2024-03-02T12:35:11;2.53;;;0.98;;
71629;SDS011;59479;51.902;8.212;2024-03-02T12:37:49;2.60;;;1.10;;
71629;SDS011;59479;51.902;8.212;2024-03-02T12:40:19;2.60;;;1.30;;
71629;SDS011;59479;51.902;8.212;2024-03-02T12:42:46;4.47;;;1.30;;
71629;SDS011;59479;51.902;8.212;2024-03-02T12:45:12;2.60;;;1.05;;
71629;SDS011;59479;51.902;8.212;2024-03-02T12:47:41;2.70;;;1.02;;
71629;SDS011;59479;51.902;8.212;2024-03-02T12:50:08;3.38;;;1.45;;
71629;SDS011;59479;51.902;8.212;2024-03-02T12:52:34;6.22;;;1.90;;
71629;SDS011;59479;51.902;8.212;2024-03-02T12:55:00;10.90;;;2.73;;
71629;SDS011;59479;51.902;8.212;2024-03-02T12:57:28;6.90;;;1.90;;
71629;SDS011;59479;51.902;8.212;2024-03-02T13:00:06;9.03;;;2.80;;
71629;SDS011;59479;51.902;8.212;2024-03-02T13:02:35;5.13;;;1.80;;
71629;SDS011;59479;51.902;8.212;2024-03-02T13:05:04;12.52;;;2.85;;
71629;SDS011;59479;51.902;8.212;2024-03-02T13:07:31;6.20;;;1.95;;
71629;SDS011;59479;51.902;8.212;2024-03-02T13:09:59;9.15;;;2.33;;
71629;SDS011;59479;51.902;8.212;2024-03-02T13:12:24;8.00;;;2.10;;
71629;SDS011;59479;51.902;8.212;2024-03-02T13:14:53;9.70;;;2.38;;
71629;SDS011;59479;51.902;8.212;2024-03-02T13:17:19;3.03;;;1.53;;
71629;SDS011;59479;51.902;8.212;2024-03-02T13:19:58;3.05;;;1.33;;
71629;SDS011;59479;51.902;8.212;2024-03-02T13:22:24;3.08;;;1.50;;
71629;SDS011;59479;51.902;8.212;2024-03-02T13:24:51;2.38;;;0.88;;
71629;SDS011;59479;51.902;8.212;2024-03-02T13:27:19;2.53;;;1.20;;
71629;SDS011;59479;51.902;8.212;2024-03-02T13:29:45;2.90;;;1.50;;
71629;SDS011;59479;51.902;8.212;2024-03-02T13:32:12;6.65;;;2.45;;
71629;SDS011;59479;51.902;8.212;2024-03-02T13:34:38;5.57;;;3.08;;
71629;SDS011;59479;51.902;8.212;2024-03-02T13:37:03;5.83;;;2.50;;
71629;SDS011;59479;51.902;8.212;2024-03-02T13:39:30;3.42;;;1.40;;
71629;SDS011;59479;51.902;8.212;2024-03-02T13:41:57;3.20;;;1.70;;
71629;SDS011;59479;51.902;8.212;2024-03-02T13:44:29;3.00;;;1.25;;
71629;SDS011;59479;51.902;8.212;2024-03-02T13:46:55;3.50;;;1.60;;
71629;SDS011;59479;51.902;8.212;2024-03-02T13:49:20;14.50;;;2.20;;
71629;SDS011;59479;51.902;8.212;2024-03-02T13:51:45;5.17;;;2.10;;
71629;SDS011;59479;51.902;8.212;2024-03-02T13:54:11;4.93;;;2.60;;
71629;SDS011;59479;51.902;8.212;2024-03-02T13:56:37;5.57;;;2.20;;
71629;SDS011;59479;51.902;8.212;2024-03-02T13:59:04;5.97;;;2.45;;
71629;SDS011;59479;51.902;8.212;2024-03-02T14:01:30;5.38;;;2.50;;
71629;SDS011;59479;51.902;8.212;2024-03-02T14:03:57;5.37;;;2.23;;
71629;SDS011;59479;51.902;8.212;2024-03-02T14:06:23;4.47;;;2.00;;
71629;SDS011;59479;51.902;8.212;2024-03-02T14:08:48;4.33;;;1.60;;
71629;SDS011;59479;51.902;8.212;2024-03-02T14:11:14;3.30;;;1.57;;
71629;SDS011;59479;51.902;8.212;2024-03-02T14:13:43;8.20;;;1.40;;
71629;SDS011;59479;51.902;8.212;2024-03-02T14:16:12;5.28;;;1.20;;
71629;SDS011;59479;51.902;8.212;2024-03-02T14:18:37;2.60;;;1.20;;
71629;SDS011;59479;51.902;8.212;2024-03-02T14:21:03;9.45;;;1.50;;
71629;SDS011;59479;51.902;8.212;2024-03-02T14:23:28;2.63;;;1.00;;
71629;SDS011;59479;51.902;8.212;2024-03-02T14:25:54;3.85;;;1.50;;
71629;SDS011;59479;51.902;8.212;2024-03-02T14:28:20;2.78;;;1.00;;
71629;SDS011;59479;51.902;8.212;2024-03-02T14:30:45;3.83;;;1.60;;
71629;SDS011;59479;51.902;8.212;2024-03-02T14:33:11;3.10;;;1.10;;
71629;SDS011;59479;51.902;8.212;2024-03-02T14:35:37;2.83;;;0.87;;
71629;SDS011;59479;51.902;8.212;2024-03-02T14:38:02;2.53;;;0.90;;
71629;SDS011;59479;51.902;8.212;2024-03-02T14:40:28;2.80;;;0.90;;
71629;SDS011;59479;51.902;8.212;2024-03-02T14:42:54;2.70;;;0.97;;
71629;SDS011;59479;51.902;8.212;2024-03-02T14:45:20;2.88;;;1.05;;
71629;SDS011;59479;51.902;8.212;2024-03-02T14:47:45;3.33;;;1.40;;
71629;SDS011;59479;51.902;8.212;2024-03-02T14:50:11;5.13;;;1.93;;
71629;SDS011;59479;51.902;8.212;2024-03-02T14:52:37;4.55;;;1.95;;
71629;SDS011;59479;51.902;8.212;2024-03-02T14:55:03;4.80;;;2.30;;
71629;SDS011;59479;51.902;8.212;2024-03-02T14:57:29;4.00;;;1.85;;